createdAt,value
2019-03-23T00:00:57.196Z,995.11
2019-03-23T00:01:57.382Z,995.07
2019-03-23T00:02:57.566Z,995.10
2019-03-23T00:03:58.495Z,995.03
2019-03-23T00:04:57.929Z,995.03
2019-03-23T00:05:58.927Z,995.00
2019-03-23T00:06:58.300Z,994.99
2019-03-23T00:07:58.495Z,995.01
2019-03-23T00:08:58.669Z,995.00
2019-03-23T00:09:58.867Z,995.00
2019-03-23T00:10:59.038Z,995.04
2019-03-23T00:11:59.231Z,994.97
2019-03-23T00:12:59.420Z,994.98
2019-03-23T00:13:59.598Z,994.95
2019-03-23T00:14:59.785Z,994.94
2019-03-23T00:15:59.966Z,994.97
2019-03-23T00:17:00.945Z,994.95
2019-03-23T00:18:00.285Z,994.96
2019-03-23T00:19:00.466Z,994.97
2019-03-23T00:20:00.652Z,994.93
2019-03-23T00:21:00.833Z,994.94
2019-03-23T00:22:01.014Z,994.96
2019-03-23T00:23:01.200Z,994.94
2019-03-23T00:24:01.386Z,995.00
2019-03-23T00:25:02.436Z,994.97
2019-03-23T00:26:01.746Z,994.97
2019-03-23T00:27:01.928Z,995.00
2019-03-23T00:28:02.116Z,994.97
2019-03-23T00:29:02.305Z,994.97
2019-03-23T00:30:03.433Z,994.94
2019-03-23T00:31:02.663Z,994.93
2019-03-23T00:32:02.841Z,994.93
2019-03-23T00:33:03.026Z,994.96
2019-03-23T00:34:03.209Z,994.93
2019-03-23T00:35:03.387Z,994.96
2019-03-23T00:36:03.568Z,994.92
2019-03-23T00:37:03.753Z,994.96
2019-03-23T00:38:03.940Z,994.98
2019-03-23T00:39:04.131Z,994.96
2019-03-23T00:40:04.308Z,994.91
2019-03-23T00:41:04.498Z,994.90
2019-03-23T00:42:04.691Z,994.89
2019-03-23T00:43:04.880Z,994.94
2019-03-23T00:44:07.353Z,994.91
2019-03-23T00:45:05.235Z,994.87
2019-03-23T00:46:05.419Z,994.89
2019-03-23T00:47:05.607Z,994.89
2019-03-23T00:48:05.788Z,994.88
2019-03-23T00:49:05.971Z,994.90
2019-03-23T00:50:06.154Z,994.86
2019-03-23T00:51:06.337Z,994.90
2019-03-23T00:52:06.526Z,994.90
2019-03-23T00:53:06.706Z,994.87
2019-03-23T00:54:06.889Z,994.88
2019-03-23T00:55:07.080Z,994.85
2019-03-23T00:56:07.266Z,994.84
2019-03-23T00:57:07.447Z,994.86
2019-03-23T00:58:07.632Z,994.83
2019-03-23T00:59:07.813Z,994.80
2019-03-23T01:00:07.995Z,994.85
2019-03-23T01:01:08.181Z,994.86
2019-03-23T01:02:08.361Z,994.83
2019-03-23T01:03:08.556Z,994.84
2019-03-23T01:04:09.096Z,994.83
2019-03-23T01:05:08.900Z,994.86
2019-03-23T01:06:09.089Z,994.87
2019-03-23T01:07:09.271Z,994.84
2019-03-23T01:08:09.461Z,994.84
2019-03-23T01:09:09.641Z,994.86
2019-03-23T01:10:09.823Z,994.83
2019-03-23T01:11:10.003Z,994.84
2019-03-23T01:12:10.185Z,994.81
2019-03-23T01:13:10.367Z,994.81
2019-03-23T01:14:10.551Z,994.83
2019-03-23T01:15:10.747Z,994.78
2019-03-23T01:16:10.917Z,994.83
2019-03-23T01:17:11.094Z,994.81
2019-03-23T01:18:11.276Z,994.82
2019-03-23T01:19:11.467Z,994.80
2019-03-23T01:20:11.649Z,994.79
2019-03-23T01:21:11.834Z,994.79
2019-03-23T01:22:12.017Z,994.82
2019-03-23T01:23:12.197Z,994.78
2019-03-23T01:24:12.381Z,994.76
2019-03-23T01:25:12.567Z,994.77
2019-03-23T01:26:12.861Z,994.78
2019-03-23T01:27:12.941Z,994.76
2019-03-23T01:28:13.136Z,994.76
2019-03-23T01:29:13.315Z,994.70
2019-03-23T01:30:13.510Z,994.74
2019-03-23T01:31:13.675Z,994.71
2019-03-23T01:32:13.864Z,994.69
2019-03-23T01:33:14.043Z,994.70
2019-03-23T01:34:14.230Z,994.69
2019-03-23T01:35:14.415Z,994.69
2019-03-23T01:36:14.595Z,994.66
2019-03-23T01:37:14.775Z,994.63
2019-03-23T01:38:14.964Z,994.59
2019-03-23T01:39:15.136Z,994.62
2019-03-23T01:40:15.376Z,994.61
2019-03-23T01:41:15.506Z,994.61
2019-03-23T01:42:15.686Z,994.58
2019-03-23T01:43:15.872Z,994.56
2019-03-23T01:44:16.057Z,994.61
2019-03-23T01:45:16.246Z,994.58
2019-03-23T01:46:16.427Z,994.54
2019-03-23T01:47:16.610Z,994.52
2019-03-23T01:48:16.789Z,994.56
2019-03-23T01:49:16.972Z,994.58
2019-03-23T01:50:17.161Z,994.51
2019-03-23T01:51:17.343Z,994.55
2019-03-23T01:52:17.532Z,994.56
2019-03-23T01:53:17.727Z,994.56
2019-03-23T01:54:17.907Z,994.55
2019-03-23T01:55:18.090Z,994.59
2019-03-23T01:56:18.268Z,994.56
2019-03-23T01:57:18.453Z,994.55
2019-03-23T01:58:18.639Z,994.58
2019-03-23T01:59:18.819Z,994.59
2019-03-23T02:00:19.000Z,994.61
2019-03-23T02:01:19.189Z,994.60
2019-03-23T02:02:19.372Z,994.59
2019-03-23T02:03:19.551Z,994.55
2019-03-23T02:04:19.736Z,994.57
2019-03-23T02:05:19.920Z,994.52
2019-03-23T02:06:20.118Z,994.54
2019-03-23T02:07:20.314Z,994.49
2019-03-23T02:08:20.489Z,994.52
2019-03-23T02:09:20.676Z,994.52
2019-03-23T02:10:20.862Z,994.51
2019-03-23T02:11:21.031Z,994.49
2019-03-23T02:12:21.215Z,994.47
2019-03-23T02:13:21.402Z,994.48
2019-03-23T02:14:21.578Z,994.46
2019-03-23T02:15:21.767Z,994.48
2019-03-23T02:16:21.949Z,994.45
2019-03-23T02:17:22.123Z,994.49
2019-03-23T02:18:22.300Z,994.44
2019-03-23T02:19:22.486Z,994.47
2019-03-23T02:20:22.669Z,994.46
2019-03-23T02:21:22.847Z,994.42
2019-03-23T02:22:23.033Z,994.46
2019-03-23T02:23:23.213Z,994.42
2019-03-23T02:24:23.397Z,994.46
2019-03-23T02:25:23.580Z,994.44
2019-03-23T02:26:23.766Z,994.41
2019-03-23T02:27:23.945Z,994.44
2019-03-23T02:28:24.129Z,994.44
2019-03-23T02:29:24.308Z,994.44
2019-03-23T02:30:24.489Z,994.45
2019-03-23T02:31:24.676Z,994.42
2019-03-23T02:32:24.847Z,994.42
2019-03-23T02:33:25.040Z,994.45
2019-03-23T02:34:25.230Z,994.41
2019-03-23T02:35:25.398Z,994.44
2019-03-23T02:36:25.581Z,994.45
2019-03-23T02:37:28.081Z,994.46
2019-03-23T02:38:25.943Z,994.48
2019-03-23T02:39:26.136Z,994.49
2019-03-23T02:40:26.305Z,994.50
2019-03-23T02:41:26.487Z,994.46
2019-03-23T02:42:26.677Z,994.48
2019-03-23T02:43:26.857Z,994.45
2019-03-23T02:44:27.053Z,994.45
2019-03-23T02:45:30.121Z,994.43
2019-03-23T02:46:27.413Z,994.44
2019-03-23T02:47:27.605Z,994.41
2019-03-23T02:48:27.783Z,994.37
2019-03-23T02:49:27.979Z,994.41
2019-03-23T02:50:28.159Z,994.42
2019-03-23T02:51:28.342Z,994.43
2019-03-23T02:52:28.532Z,994.43
2019-03-23T02:53:28.716Z,994.41
2019-03-23T02:54:28.903Z,994.39
2019-03-23T02:55:29.084Z,994.40
2019-03-23T02:56:29.269Z,994.39
2019-03-23T02:57:29.447Z,994.39
2019-03-23T02:58:29.628Z,994.37
2019-03-23T02:59:29.821Z,994.41
2019-03-23T03:00:30.001Z,994.36
2019-03-23T03:01:30.177Z,994.37
2019-03-23T03:02:30.380Z,994.40
2019-03-23T03:03:30.554Z,994.34
2019-03-23T03:04:30.736Z,994.39
2019-03-23T03:05:30.933Z,994.37
2019-03-23T03:06:31.119Z,994.37
2019-03-23T03:07:41.934Z,994.39
2019-03-23T03:08:31.481Z,994.40
2019-03-23T03:09:31.652Z,994.38
2019-03-23T03:10:31.835Z,994.39
2019-03-23T03:11:32.030Z,994.37
2019-03-23T03:12:32.202Z,994.43
2019-03-23T03:13:32.397Z,994.40
2019-03-23T03:14:32.579Z,994.37
2019-03-23T03:15:32.755Z,994.42
2019-03-23T03:16:32.952Z,994.37
2019-03-23T03:17:33.127Z,994.40
2019-03-23T03:18:33.307Z,994.39
2019-03-23T03:19:33.491Z,994.41
2019-03-23T03:20:33.681Z,994.36
2019-03-23T03:21:33.849Z,994.38
2019-03-23T03:22:34.048Z,994.37
2019-03-23T03:23:34.229Z,994.40
2019-03-23T03:24:34.404Z,994.34
2019-03-23T03:25:34.585Z,994.37
2019-03-23T03:26:34.774Z,994.33
2019-03-23T03:27:34.953Z,994.34
2019-03-23T03:28:35.138Z,994.33
2019-03-23T03:29:35.319Z,994.34
2019-03-23T03:30:35.529Z,994.31
2019-03-23T03:31:35.695Z,994.33
2019-03-23T03:32:35.874Z,994.29
2019-03-23T03:33:36.057Z,994.29
2019-03-23T03:34:36.304Z,994.30
2019-03-23T03:35:36.421Z,994.28
2019-03-23T03:36:36.603Z,994.29
2019-03-23T03:37:36.791Z,994.24
2019-03-23T03:38:36.973Z,994.29
2019-03-23T03:39:37.148Z,994.27
2019-03-23T03:40:37.343Z,994.25
2019-03-23T03:41:37.516Z,994.29
2019-03-23T03:42:37.698Z,994.24
2019-03-23T03:43:37.873Z,994.27
2019-03-23T03:44:38.057Z,994.27
2019-03-23T03:45:38.244Z,994.27
2019-03-23T03:46:38.421Z,994.31
2019-03-23T03:47:41.246Z,994.30
2019-03-23T03:48:38.782Z,994.27
2019-03-23T03:49:38.964Z,994.24
2019-03-23T03:50:39.161Z,994.27
2019-03-23T03:51:39.344Z,994.28
2019-03-23T03:52:39.524Z,994.29
2019-03-23T03:53:39.696Z,994.27
2019-03-23T03:54:39.874Z,994.26
2019-03-23T03:55:40.062Z,994.28
2019-03-23T03:56:40.243Z,994.24
2019-03-23T03:57:40.430Z,994.23
2019-03-23T03:58:40.613Z,994.23
2019-03-23T03:59:40.801Z,994.21
2019-03-23T04:00:40.992Z,994.25
2019-03-23T04:01:41.173Z,994.20
2019-03-23T04:02:41.367Z,994.25
2019-03-23T04:03:41.535Z,994.26
2019-03-23T04:04:41.715Z,994.19
2019-03-23T04:05:41.894Z,994.26
2019-03-23T04:06:42.082Z,994.25
2019-03-23T04:07:42.259Z,994.26
2019-03-23T04:08:42.443Z,994.27
2019-03-23T04:09:42.644Z,994.28
2019-03-23T04:10:42.801Z,994.28
2019-03-23T04:11:42.986Z,994.33
2019-03-23T04:12:43.172Z,994.30
2019-03-23T04:13:43.364Z,994.31
2019-03-23T04:14:43.537Z,994.31
2019-03-23T04:15:43.732Z,994.32
2019-03-23T04:16:43.900Z,994.29
2019-03-23T04:17:44.092Z,994.30
2019-03-23T04:18:44.269Z,994.30
2019-03-23T04:19:44.448Z,994.26
2019-03-23T04:20:44.629Z,994.28
2019-03-23T04:21:44.815Z,994.31
2019-03-23T04:22:44.998Z,994.31
2019-03-23T04:23:45.183Z,994.33
2019-03-23T04:24:45.380Z,994.33
2019-03-23T04:25:45.561Z,994.34
2019-03-23T04:26:45.748Z,994.34
2019-03-23T04:27:45.940Z,994.39
2019-03-23T04:28:46.130Z,994.36
2019-03-23T04:29:46.297Z,994.37
2019-03-23T04:30:46.482Z,994.32
2019-03-23T04:31:46.665Z,994.30
2019-03-23T04:32:46.852Z,994.30
2019-03-23T04:33:47.031Z,994.31
2019-03-23T04:34:47.211Z,994.30
2019-03-23T04:35:47.395Z,994.25
2019-03-23T04:36:47.573Z,994.26
2019-03-23T04:37:47.745Z,994.29
2019-03-23T04:38:47.942Z,994.30
2019-03-23T04:39:48.116Z,994.28
2019-03-23T04:40:48.293Z,994.31
2019-03-23T04:41:48.478Z,994.32
2019-03-23T04:42:48.655Z,994.33
2019-03-23T04:43:48.837Z,994.35
2019-03-23T04:44:49.019Z,994.33
2019-03-23T04:45:49.202Z,994.35
2019-03-23T04:46:49.380Z,994.34
2019-03-23T04:47:49.561Z,994.34
2019-03-23T04:48:49.744Z,994.38
2019-03-23T04:49:49.929Z,994.36
2019-03-23T04:50:50.120Z,994.34
2019-03-23T04:51:50.298Z,994.37
2019-03-23T04:52:50.487Z,994.34
2019-03-23T04:53:50.668Z,994.41
2019-03-23T04:54:50.854Z,994.36
2019-03-23T04:55:51.038Z,994.38
2019-03-23T04:56:51.214Z,994.37
2019-03-23T04:57:51.397Z,994.43
2019-03-23T04:58:51.583Z,994.40
2019-03-23T04:59:51.787Z,994.43
2019-03-23T05:00:51.953Z,994.44
2019-03-23T05:01:52.125Z,994.43
2019-03-23T05:02:52.309Z,994.45
2019-03-23T05:03:52.488Z,994.46
2019-03-23T05:04:52.687Z,994.48
2019-03-23T05:05:52.881Z,994.46
2019-03-23T05:06:53.059Z,994.45
2019-03-23T05:07:53.233Z,994.44
2019-03-23T05:08:53.416Z,994.46
2019-03-23T05:09:53.598Z,994.45
2019-03-23T05:10:53.780Z,994.42
2019-03-23T05:11:53.962Z,994.45
2019-03-23T05:12:54.143Z,994.46
2019-03-23T05:13:54.322Z,994.42
2019-03-23T05:14:54.504Z,994.46
2019-03-23T05:15:54.689Z,994.43
2019-03-23T05:16:54.864Z,994.46
2019-03-23T05:17:55.046Z,994.48
2019-03-23T05:18:55.234Z,994.50
2019-03-23T05:19:55.406Z,994.50
2019-03-23T05:20:55.592Z,994.51
2019-03-23T05:21:55.818Z,994.52
2019-03-23T05:22:55.949Z,994.53
2019-03-23T05:23:56.135Z,994.55
2019-03-23T05:24:56.317Z,994.52
2019-03-23T05:25:56.503Z,994.52
2019-03-23T05:26:56.679Z,994.57
2019-03-23T05:27:56.862Z,994.61
2019-03-23T05:28:57.037Z,994.60
2019-03-23T05:29:57.218Z,994.62
2019-03-23T05:30:57.403Z,994.66
2019-03-23T05:31:57.584Z,994.71
2019-03-23T05:32:57.764Z,994.67
2019-03-23T05:33:57.941Z,994.68
2019-03-23T05:34:58.126Z,994.62
2019-03-23T05:35:58.308Z,994.62
2019-03-23T05:36:58.490Z,994.66
2019-03-23T05:37:58.666Z,994.62
2019-03-23T05:38:58.851Z,994.59
2019-03-23T05:39:59.031Z,994.62
2019-03-23T05:40:59.236Z,994.62
2019-03-23T05:41:59.406Z,994.65
2019-03-23T05:42:59.589Z,994.69
2019-03-23T05:43:59.769Z,994.78
2019-03-23T05:44:59.951Z,994.83
2019-03-23T05:46:00.130Z,994.80
2019-03-23T05:47:00.320Z,994.79
2019-03-23T05:48:00.494Z,994.78
2019-03-23T05:49:00.679Z,994.77
2019-03-23T05:50:00.863Z,994.81
2019-03-23T05:51:01.042Z,994.92
2019-03-23T05:52:01.610Z,994.98
2019-03-23T05:53:01.416Z,994.98
2019-03-23T05:54:01.599Z,995.01
2019-03-23T05:55:01.785Z,995.06
2019-03-23T05:56:01.959Z,995.15
2019-03-23T05:57:02.141Z,995.28
2019-03-23T05:58:02.324Z,995.44
2019-03-23T05:59:02.503Z,995.58
2019-03-23T06:00:02.684Z,995.60
2019-03-23T06:01:02.872Z,995.71
2019-03-23T06:02:03.055Z,995.67
2019-03-23T06:03:03.239Z,995.55
2019-03-23T06:04:03.421Z,995.55
2019-03-23T06:05:03.601Z,995.70
2019-03-23T06:06:03.791Z,995.87
2019-03-23T06:07:03.971Z,996.12
2019-03-23T06:08:04.156Z,996.35
2019-03-23T06:09:04.327Z,996.48
2019-03-23T06:10:04.530Z,996.54
2019-03-23T06:11:04.716Z,996.58
2019-03-23T06:12:04.904Z,996.54
2019-03-23T06:13:05.081Z,996.54
2019-03-23T06:14:05.269Z,996.64
2019-03-23T06:15:05.455Z,996.59
2019-03-23T06:16:05.655Z,996.64
2019-03-23T06:17:05.841Z,996.64
2019-03-23T06:18:06.033Z,996.65
2019-03-23T06:19:06.225Z,996.66
2019-03-23T06:20:06.411Z,996.63
2019-03-23T06:21:06.597Z,996.69
2019-03-23T06:22:06.783Z,996.68
2019-03-23T06:23:06.970Z,996.68
2019-03-23T06:24:07.161Z,996.73
2019-03-23T06:25:07.350Z,996.73
2019-03-23T06:26:07.542Z,996.78
2019-03-23T06:27:07.729Z,996.79
2019-03-23T06:28:07.908Z,996.79
2019-03-23T06:29:08.104Z,996.79
2019-03-23T06:30:08.294Z,996.77
2019-03-23T06:31:08.483Z,996.71
2019-03-23T06:32:08.682Z,996.68
2019-03-23T06:33:08.870Z,996.67
2019-03-23T06:34:09.053Z,996.67
2019-03-23T06:35:09.247Z,996.65
2019-03-23T06:36:09.439Z,996.61
2019-03-23T06:37:09.634Z,996.57
2019-03-23T06:38:09.831Z,996.54
2019-03-23T06:39:10.027Z,996.51
2019-03-23T06:40:10.219Z,996.52
2019-03-23T06:41:10.410Z,996.51
2019-03-23T06:42:10.599Z,996.47
2019-03-23T06:43:10.805Z,996.49
2019-03-23T06:44:11.004Z,996.53
2019-03-23T06:45:11.197Z,996.55
2019-03-23T06:46:11.393Z,996.55
2019-03-23T06:47:11.590Z,996.56
2019-03-23T06:48:11.794Z,996.51
2019-03-23T06:49:11.980Z,996.52
2019-03-23T06:50:12.179Z,996.48
2019-03-23T06:51:12.373Z,996.50
2019-03-23T06:52:12.568Z,996.56
2019-03-23T06:53:12.756Z,996.54
2019-03-23T06:54:12.947Z,996.55
2019-03-23T06:55:13.150Z,996.58
2019-03-23T06:56:13.346Z,996.55
2019-03-23T06:57:13.541Z,996.51
2019-03-23T06:58:13.737Z,996.50
2019-03-23T06:59:13.931Z,996.55
2019-03-23T07:00:14.126Z,996.59
2019-03-23T07:01:14.327Z,996.60
2019-03-23T07:02:14.520Z,996.58
2019-03-23T07:03:14.713Z,996.55
2019-03-23T07:04:14.910Z,996.52
2019-03-23T07:05:15.104Z,996.48
2019-03-23T07:06:15.299Z,996.48
2019-03-23T07:07:15.517Z,996.51
2019-03-23T07:08:15.717Z,996.58
2019-03-23T07:09:16.626Z,996.53
2019-03-23T07:10:16.116Z,996.57
2019-03-23T07:11:16.294Z,996.60
2019-03-23T07:12:16.499Z,996.60
2019-03-23T07:13:16.706Z,996.57
2019-03-23T07:14:16.879Z,996.56
2019-03-23T07:15:20.311Z,996.53
2019-03-23T07:16:17.268Z,996.57
2019-03-23T07:17:18.011Z,996.54
2019-03-23T07:18:17.660Z,996.55
2019-03-23T07:19:17.847Z,996.59
2019-03-23T07:20:18.054Z,996.57
2019-03-23T07:21:18.248Z,996.57
2019-03-23T07:22:18.442Z,996.58
2019-03-23T07:23:18.642Z,996.59
2019-03-23T07:24:19.509Z,996.62
2019-03-23T07:25:19.038Z,996.60
2019-03-23T07:26:20.010Z,996.58
2019-03-23T07:27:20.019Z,996.59
2019-03-23T07:28:19.609Z,996.57
2019-03-23T07:29:19.807Z,996.56
2019-03-23T07:30:20.000Z,996.54
2019-03-23T07:31:20.194Z,996.53
2019-03-23T07:32:20.407Z,996.52
2019-03-23T07:33:20.592Z,996.52
2019-03-23T07:34:20.792Z,996.49
2019-03-23T07:35:20.991Z,996.52
2019-03-23T07:36:21.184Z,996.50
2019-03-23T07:37:21.386Z,996.45
2019-03-23T07:38:21.571Z,996.51
2019-03-23T07:39:28.029Z,996.55
2019-03-23T07:40:21.987Z,996.52
2019-03-23T07:41:22.182Z,996.57
2019-03-23T07:42:22.377Z,996.61
2019-03-23T07:43:23.521Z,996.67
2019-03-23T07:44:22.751Z,996.64
2019-03-23T07:45:22.948Z,996.69
2019-03-23T07:46:23.142Z,996.67
2019-03-23T07:47:23.346Z,996.71
2019-03-23T07:48:23.530Z,996.66
2019-03-23T07:49:23.733Z,996.66
2019-03-23T07:50:23.931Z,996.65
2019-03-23T07:51:24.123Z,996.65
2019-03-23T07:52:24.317Z,996.65
2019-03-23T07:53:24.510Z,996.62
2019-03-23T07:54:24.700Z,996.62
2019-03-23T07:55:24.898Z,996.62
2019-03-23T07:56:25.094Z,996.54
2019-03-23T07:57:25.293Z,996.45
2019-03-23T07:58:25.485Z,996.45
2019-03-23T07:59:25.681Z,996.48
2019-03-23T08:00:25.876Z,996.54
2019-03-23T08:01:26.085Z,996.57
2019-03-23T08:02:26.279Z,996.58
2019-03-23T08:03:26.476Z,996.62
2019-03-23T08:04:26.686Z,996.61
2019-03-23T08:05:26.878Z,996.64
2019-03-23T08:06:27.073Z,996.63
2019-03-23T08:07:27.268Z,996.54
2019-03-23T08:08:27.461Z,996.51
2019-03-23T08:09:37.393Z,996.53
2019-03-23T08:10:27.869Z,996.52
2019-03-23T08:11:28.065Z,996.49
2019-03-23T08:12:28.263Z,996.49
2019-03-23T08:13:28.546Z,996.40
2019-03-23T08:14:28.669Z,996.36
2019-03-23T08:15:28.885Z,996.29
2019-03-23T08:16:29.082Z,996.23
2019-03-23T08:17:29.274Z,996.21
2019-03-23T08:18:29.469Z,996.21
2019-03-23T08:19:29.663Z,996.16
2019-03-23T08:20:29.866Z,996.21
2019-03-23T08:21:30.054Z,996.18
2019-03-23T08:22:30.269Z,996.19
2019-03-23T08:23:30.473Z,996.15
2019-03-23T08:24:30.663Z,996.17
2019-03-23T08:25:30.864Z,996.16
2019-03-23T08:26:31.060Z,996.15
2019-03-23T08:27:31.258Z,996.20
2019-03-23T08:28:32.498Z,996.16
2019-03-23T08:29:31.652Z,996.18
2019-03-23T08:30:31.852Z,996.16
2019-03-23T08:31:32.054Z,996.18
2019-03-23T08:32:32.251Z,996.18
2019-03-23T08:33:32.450Z,996.19
2019-03-23T08:34:32.644Z,996.19
2019-03-23T08:35:32.843Z,996.19
2019-03-23T08:36:33.040Z,996.18
2019-03-23T08:37:33.290Z,996.21
2019-03-23T08:38:33.432Z,996.23
2019-03-23T08:39:33.630Z,996.34
2019-03-23T08:40:35.665Z,996.42
2019-03-23T08:41:34.025Z,996.43
2019-03-23T08:42:35.051Z,996.43
2019-03-23T08:43:34.424Z,996.45
2019-03-23T08:44:34.627Z,996.45
2019-03-23T08:45:34.829Z,996.43
2019-03-23T08:46:35.023Z,996.39
2019-03-23T08:47:35.225Z,996.35
2019-03-23T08:48:35.425Z,996.26
2019-03-23T08:49:35.622Z,996.21
2019-03-23T08:50:35.824Z,996.16
2019-03-23T08:51:36.025Z,996.14
2019-03-23T08:52:36.223Z,996.06
2019-03-23T08:53:36.422Z,996.01
2019-03-23T08:54:36.619Z,996.08
2019-03-23T08:55:36.820Z,996.04
2019-03-23T08:56:37.498Z,996.12
2019-03-23T08:57:37.219Z,996.18
2019-03-23T08:58:37.416Z,996.20
2019-03-23T08:59:37.621Z,996.20
2019-03-23T09:00:37.818Z,996.21
2019-03-23T09:01:38.015Z,996.23
2019-03-23T09:02:38.210Z,996.27
2019-03-23T09:03:38.414Z,996.27
2019-03-23T09:04:38.609Z,996.29
2019-03-23T09:05:38.809Z,996.25
2019-03-23T09:06:39.008Z,996.28
2019-03-23T09:07:39.198Z,996.28
2019-03-23T09:08:39.398Z,996.27
2019-03-23T09:09:39.599Z,996.23
2019-03-23T09:10:39.790Z,996.20
2019-03-23T09:11:39.984Z,996.19
2019-03-23T09:12:40.191Z,996.24
2019-03-23T09:13:41.021Z,996.26
2019-03-23T09:14:40.600Z,996.16
2019-03-23T09:15:40.821Z,996.24
2019-03-23T09:16:41.007Z,996.21
2019-03-23T09:17:41.212Z,996.27
2019-03-23T09:18:41.411Z,996.34
2019-03-23T09:19:41.613Z,996.37
2019-03-23T09:20:41.812Z,996.35
2019-03-23T09:21:41.993Z,996.32
2019-03-23T09:22:42.199Z,996.31
2019-03-23T09:23:42.399Z,996.25
2019-03-23T09:24:42.589Z,996.25
2019-03-23T09:25:42.804Z,996.25
2019-03-23T09:26:43.018Z,996.28
2019-03-23T09:27:43.216Z,996.27
2019-03-23T09:28:43.409Z,996.28
2019-03-23T09:29:43.613Z,996.23
2019-03-23T09:30:43.821Z,996.24
2019-03-23T09:31:44.015Z,996.26
2019-03-23T09:32:44.209Z,996.23
2019-03-23T09:33:44.417Z,996.25
2019-03-23T09:34:44.621Z,996.24
2019-03-23T09:35:44.816Z,996.26
2019-03-23T09:36:45.020Z,996.30
2019-03-23T09:37:45.215Z,996.32
2019-03-23T09:38:45.416Z,996.31
2019-03-23T09:39:45.621Z,996.29
2019-03-23T09:40:45.817Z,996.30
2019-03-23T09:41:46.017Z,996.27
2019-03-23T09:42:46.212Z,996.28
2019-03-23T09:43:46.414Z,996.29
2019-03-23T09:44:46.617Z,996.25
2019-03-23T09:45:46.830Z,996.24
2019-03-23T09:46:47.025Z,996.22
2019-03-23T09:47:47.229Z,996.20
2019-03-23T09:48:47.415Z,996.25
2019-03-23T09:49:47.615Z,996.29
2019-03-23T09:50:47.816Z,996.28
2019-03-23T09:51:48.022Z,996.30
2019-03-23T09:52:48.224Z,996.28
2019-03-23T09:53:48.420Z,996.25
2019-03-23T09:54:48.647Z,996.28
2019-03-23T09:55:48.822Z,996.26
2019-03-23T09:56:49.031Z,996.30
2019-03-23T09:57:49.228Z,996.28
2019-03-23T09:58:49.434Z,996.27
2019-03-23T09:59:49.636Z,996.32
2019-03-23T10:00:49.836Z,996.29
2019-03-23T10:01:50.035Z,996.32
2019-03-23T10:02:50.254Z,996.29
2019-03-23T10:03:50.436Z,996.29
2019-03-23T10:04:50.646Z,996.24
2019-03-23T10:05:50.852Z,996.19
2019-03-23T10:06:51.040Z,996.20
2019-03-23T10:07:51.239Z,996.15
2019-03-23T10:08:51.444Z,996.18
2019-03-23T10:09:51.642Z,996.17
2019-03-23T10:10:51.838Z,996.17
2019-03-23T10:11:52.036Z,996.18
2019-03-23T10:12:52.237Z,996.19
2019-03-23T10:13:52.440Z,996.21
2019-03-23T10:14:52.646Z,996.19
2019-03-23T10:15:52.839Z,996.19
2019-03-23T10:16:53.041Z,996.24
2019-03-23T10:17:53.241Z,996.27
2019-03-23T10:18:53.445Z,996.23
2019-03-23T10:19:53.648Z,996.21
2019-03-23T10:20:53.852Z,996.24
2019-03-23T10:21:54.050Z,996.24
2019-03-23T10:22:54.255Z,996.25
2019-03-23T10:23:54.648Z,996.20
2019-03-23T10:24:54.650Z,996.20
2019-03-23T10:25:54.849Z,996.19
2019-03-23T10:26:55.049Z,996.16
2019-03-23T10:27:55.257Z,996.17
2019-03-23T10:28:55.451Z,996.15
2019-03-23T10:29:55.659Z,996.15
2019-03-23T10:30:55.867Z,996.16
2019-03-23T10:31:56.066Z,996.20
2019-03-23T10:32:56.265Z,996.19
2019-03-23T10:33:56.471Z,996.19
2019-03-23T10:34:56.675Z,996.17
2019-03-23T10:35:56.874Z,996.18
2019-03-23T10:36:57.597Z,996.18
2019-03-23T10:37:58.086Z,996.15
2019-03-23T10:38:57.501Z,996.16
2019-03-23T10:39:57.698Z,996.16
2019-03-23T10:40:57.893Z,996.12
2019-03-23T10:41:58.099Z,996.16
2019-03-23T10:43:00.086Z,996.21
2019-03-23T10:43:58.487Z,996.17
2019-03-23T10:44:58.689Z,996.12
2019-03-23T10:45:58.900Z,996.10
2019-03-23T10:47:00.101Z,996.10
2019-03-23T10:47:59.326Z,996.13
2019-03-23T10:48:59.531Z,996.18
2019-03-23T10:49:59.741Z,996.15
2019-03-23T10:50:59.947Z,996.16
2019-03-23T10:52:00.141Z,996.21
2019-03-23T10:53:00.347Z,996.15
2019-03-23T10:54:00.548Z,996.22
2019-03-23T10:55:00.758Z,996.24
2019-03-23T10:56:00.956Z,996.26
2019-03-23T10:57:01.160Z,996.21
2019-03-23T10:58:01.363Z,996.12
2019-03-23T10:59:01.562Z,996.02
2019-03-23T11:00:01.765Z,996.04
2019-03-23T11:01:01.969Z,996.11
2019-03-23T11:02:02.167Z,996.11
2019-03-23T11:03:02.364Z,996.15
2019-03-23T11:04:02.564Z,996.15
2019-03-23T11:05:02.767Z,996.16
2019-03-23T11:06:02.968Z,996.12
2019-03-23T11:07:03.164Z,996.19
2019-03-23T11:08:03.369Z,996.15
2019-03-23T11:09:03.570Z,996.14
2019-03-23T11:10:03.775Z,996.07
2019-03-23T11:11:03.971Z,996.06
2019-03-23T11:12:04.176Z,996.08
2019-03-23T11:13:04.366Z,996.06
2019-03-23T11:14:04.595Z,996.07
2019-03-23T11:15:04.772Z,996.09
2019-03-23T11:16:04.973Z,996.10
2019-03-23T11:17:05.178Z,996.08
2019-03-23T11:18:05.372Z,996.09
2019-03-23T11:19:13.343Z,996.07
2019-03-23T11:20:05.772Z,995.99
2019-03-23T11:21:05.976Z,996.08
2019-03-23T11:22:06.176Z,996.07
2019-03-23T11:23:06.373Z,996.03
2019-03-23T11:24:06.578Z,996.07
2019-03-23T11:25:06.778Z,996.04
2019-03-23T11:26:06.975Z,996.05
2019-03-23T11:27:07.176Z,996.02
2019-03-23T11:28:07.382Z,996.03
2019-03-23T11:29:08.483Z,995.99
2019-03-23T11:30:07.785Z,995.98
2019-03-23T11:31:07.982Z,995.92
2019-03-23T11:32:08.187Z,995.96
2019-03-23T11:33:08.398Z,995.96
2019-03-23T11:34:17.564Z,995.92
2019-03-23T11:35:08.812Z,995.91
2019-03-23T11:36:09.000Z,995.94
2019-03-23T11:37:09.254Z,995.93
2019-03-23T11:38:09.403Z,995.92
2019-03-23T11:39:09.609Z,995.94
2019-03-23T11:40:09.816Z,995.95
2019-03-23T11:41:10.020Z,995.91
2019-03-23T11:42:10.249Z,995.89
2019-03-23T11:43:10.425Z,995.91
2019-03-23T11:44:10.626Z,995.87
2019-03-23T11:45:10.831Z,995.85
2019-03-23T11:46:11.022Z,995.86
2019-03-23T11:47:11.224Z,995.86
2019-03-23T11:48:11.435Z,995.83
2019-03-23T11:49:11.630Z,995.87
2019-03-23T11:50:11.828Z,995.87
2019-03-23T11:51:12.022Z,995.86
2019-03-23T11:52:12.225Z,995.85
2019-03-23T11:53:12.422Z,995.78
2019-03-23T11:54:12.624Z,995.74
2019-03-23T11:55:12.821Z,995.71
2019-03-23T11:56:13.021Z,995.70
2019-03-23T11:57:13.223Z,995.70
2019-03-23T11:58:13.424Z,995.70
2019-03-23T11:59:13.623Z,995.68
2019-03-23T12:00:13.821Z,995.71
2019-03-23T12:01:14.022Z,995.69
2019-03-23T12:02:14.228Z,995.70
2019-03-23T12:03:14.428Z,995.75
2019-03-23T12:04:14.615Z,995.71
2019-03-23T12:05:14.816Z,995.75
2019-03-23T12:06:15.021Z,995.66
2019-03-23T12:07:15.255Z,995.70
2019-03-23T12:08:15.453Z,995.65
2019-03-23T12:09:15.648Z,995.61
2019-03-23T12:10:15.861Z,995.61
2019-03-23T12:11:16.061Z,995.59
2019-03-23T12:12:16.252Z,995.57
2019-03-23T12:13:16.458Z,995.52
2019-03-23T12:14:16.651Z,995.47
2019-03-23T12:15:16.853Z,995.53
2019-03-23T12:16:17.051Z,995.54
2019-03-23T12:17:17.262Z,995.47
2019-03-23T12:18:17.447Z,995.45
2019-03-23T12:19:17.667Z,995.48
2019-03-23T12:20:17.853Z,995.39
2019-03-23T12:21:18.051Z,995.35
2019-03-23T12:22:18.251Z,995.37
2019-03-23T12:23:18.448Z,995.29
2019-03-23T12:24:18.646Z,995.26
2019-03-23T12:25:18.853Z,995.21
2019-03-23T12:26:19.135Z,995.31
2019-03-23T12:27:19.206Z,995.32
2019-03-23T12:28:19.410Z,995.29
2019-03-23T12:29:19.606Z,995.30
2019-03-23T12:30:19.801Z,995.33
2019-03-23T12:31:20.003Z,995.30